Time;durP1;ratioP1;P1;durP2;ratioP2;P2;SDS_P1;SDS_P2;PMS_P1;PMS_P2;Temp;Humidity;BMP_temperature;BMP_pressure;BME280_temperature;BME280_humidity;BME280_pressure;Samples;Min_cycle;Max_cycle;Signal;HPM_P1;HPM_P2
2022/06/06 00:01:40;;;;;;;44.15;33.72;;;;;;;13.98;94.05;101273.72;5035320;28;20029;-66
2022/06/06 00:04:06;;;;;;;42.72;33.72;;;;;;;13.95;93.86;101274.03;5034438;28;20136;-68
2022/06/06 00:06:31;;;;;;;42.10;32.45;;;;;;;14.00;93.91;101271.84;5048799;28;20532;-67
2022/06/06 00:08:57;;;;;;;36.50;28.65;;;;;;;13.88;94.09;101262.47;5037359;28;20095;-67
2022/06/06 00:11:23;;;;;;;42.03;32.13;;;;;;;13.90;94.94;101265.78;5048403;28;20081;-67
2022/06/06 00:13:48;;;;;;;44.22;32.83;;;;;;;13.94;94.78;101280.19;5030865;28;20029;-67
2022/06/06 00:16:14;;;;;;;43.50;33.72;;;;;;;13.93;94.57;101266.31;5042072;28;20029;-67
2022/06/06 00:18:39;;;;;;;39.72;31.75;;;;;;;13.80;94.66;101250.94;5037761;28;20033;-66
2022/06/06 00:21:08;;;;;;;42.90;32.97;;;;;;;13.97;94.74;101261.66;5043120;28;20029;-66
2022/06/06 00:23:34;;;;;;;44.13;33.53;;;;;;;13.86;94.67;101259.19;5046795;28;20032;-67
2022/06/06 00:26:00;;;;;;;40.70;33.50;;;;;;;13.86;94.74;101244.34;5043673;28;20040;-66
2022/06/06 00:28:25;;;;;;;40.13;32.75;;;;;;;13.85;94.77;101247.09;5037509;28;20063;-67
2022/06/06 00:30:57;;;;;;;43.83;33.90;;;;;;;13.91;95.21;101262.22;5045874;28;20056;-67
2022/06/06 00:36:07;;;;;;;42.50;33.15;;;;;;;13.99;94.60;101244.09;5040770;28;20039;-66
2022/06/06 00:38:33;;;;;;;42.58;33.78;;;;;;;14.00;94.59;101245.75;5047755;28;20041;-67
2022/06/06 00:40:59;;;;;;;42.97;34.05;;;;;;;14.03;94.36;101242.84;5042272;28;20493;-67
2022/06/06 00:43:24;;;;;;;48.92;36.42;;;;;;;13.96;94.69;101244.38;5038815;28;20450;-71
2022/06/06 00:45:54;;;;;;;42.45;33.10;;;;;;;13.97;94.10;101235.59;5045925;28;20044;-66
2022/06/06 00:48:24;;;;;;;45.00;33.78;;;;;;;13.96;94.29;101239.97;5038914;28;20021;-66
2022/06/06 00:51:00;;;;;;;44.42;34.55;;;;;;;13.93;94.79;101234.19;5045831;28;20060;-67
2022/06/06 00:53:34;;;;;;;43.05;33.60;;;;;;;14.05;94.20;101243.56;5045793;28;20040;-66
2022/06/06 00:56:08;;;;;;;46.25;34.75;;;;;;;14.05;94.36;101248.78;5041922;28;20483;-66
2022/06/06 00:58:35;;;;;;;45.15;35.92;;;;;;;14.06;93.80;101250.41;5044760;28;20155;-66
2022/06/06 01:01:01;;;;;;;44.42;35.78;;;;;;;14.01;94.48;101247.41;5039995;28;20385;-68
2022/06/06 01:03:29;;;;;;;46.83;35.95;;;;;;;13.99;94.57;101238.88;5046976;28;20427;-67
2022/06/06 01:05:56;;;;;;;48.10;36.92;;;;;;;14.07;94.77;101252.06;5047093;28;20066;-67
2022/06/06 01:08:22;;;;;;;47.08;36.17;;;;;;;14.03;94.53;101245.47;5045451;28;20519;-67
2022/06/06 01:10:48;;;;;;;50.85;38.50;;;;;;;14.07;94.71;101246.84;5040889;28;20033;-66
2022/06/06 01:13:17;;;;;;;50.10;38.00;;;;;;;14.01;95.05;101239.56;5028537;28;20391;-67
2022/06/06 01:15:59;;;;;;;52.67;38.13;;;;;;;14.05;94.75;101243.56;5038683;28;20071;-66
2022/06/06 01:18:43;;;;;;;47.38;37.33;;;;;;;14.12;94.68;101244.66;5045675;28;20029;-66
2022/06/06 01:21:18;;;;;;;49.00;36.85;;;;;;;14.09;94.76;101244.91;5038952;28;20033;-66
2022/06/06 01:24:11;;;;;;;49.75;36.30;;;;;;;14.12;94.39;101239.44;5039064;28;20064;-66
2022/06/06 01:26:53;;;;;;;49.20;35.92;;;;;;;14.06;94.48;101234.78;5041875;28;20432;-66
2022/06/06 01:29:22;;;;;;;48.80;35.42;;;;;;;14.11;94.31;101243.00;5045388;28;20507;-66
2022/06/06 01:31:55;;;;;;;46.85;35.53;;;;;;;13.95;94.98;101232.28;5044147;28;20104;-66
2022/06/06 01:34:30;;;;;;;46.00;34.67;;;;;;;14.02;94.64;101243.81;5039300;28;20086;-66
2022/06/06 01:36:57;;;;;;;45.42;34.78;;;;;;;13.97;94.87;101243.41;5047077;28;20029;-66
2022/06/06 01:39:25;;;;;;;45.95;34.05;;;;;;;14.00;94.93;101240.53;5043849;28;20037;-66
2022/06/06 01:42:20;;;;;;;50.88;35.80;;;;;;;14.09;94.87;101244.91;5044063;28;20392;-66
2022/06/06 01:44:53;;;;;;;44.38;33.95;;;;;;;14.00;94.73;101241.34;5038366;28;20079;-66
2022/06/06 01:47:26;;;;;;;44.28;34.53;;;;;;;13.98;94.97;101247.66;5041710;28;20052;-66
2022/06/06 01:49:54;;;;;;;46.83;34.45;;;;;;;13.99;94.94;101238.88;5046265;28;20488;-67
2022/06/06 01:52:20;;;;;;;;;;;;;;;14.19;94.43;101245.75;5044732;28;20492;-66
2022/06/06 01:54:45;;;;;;;44.80;34.08;;;;;;;13.98;94.84;101237.22;5040178;28;19951;-67
2022/06/06 01:57:14;;;;;;;41.13;32.55;;;;;;;14.03;95.02;101240.25;5041804;28;20028;-66
2022/06/06 01:59:40;;;;;;;44.65;32.78;;;;;;;14.06;94.85;101246.03;5044509;28;20087;-67
2022/06/06 02:02:06;;;;;;;46.38;33.40;;;;;;;13.98;94.96;101232.00;5044203;28;20060;-66
2022/06/06 02:04:31;;;;;;;44.42;33.20;;;;;;;14.03;95.09;101235.03;5044977;28;20111;-70
2022/06/06 02:06:57;;;;;;;43.78;32.67;;;;;;;14.01;95.15;101242.19;5044885;28;20102;-66
2022/06/06 02:09:23;;;;;;;45.80;33.40;;;;;;;13.98;95.26;101229.41;5043483;28;20498;-68
2022/06/06 02:11:49;;;;;;;44.55;33.47;;;;;;;13.95;95.43;101232.28;5037682;28;20112;-66
2022/06/06 02:14:14;;;;;;;43.25;32.95;;;;;;;14.00;95.08;101230.94;5040830;28;20178;-67
2022/06/06 02:16:40;;;;;;;45.60;33.28;;;;;;;14.02;95.11;101234.22;5046149;28;20021;-67
2022/06/06 02:19:06;;;;;;;43.28;33.35;;;;;;;14.02;95.20;101229.00;5046430;28;20027;-66
2022/06/06 02:21:33;;;;;;;40.83;31.52;;;;;;;14.07;95.00;101231.19;5040160;28;20079;-66
2022/06/06 02:24:00;;;;;;;39.25;30.90;;;;;;;14.05;94.73;101228.72;5036452;28;20040;-66
2022/06/06 02:26:26;;;;;;;39.22;31.25;;;;;;;14.06;94.93;101224.34;5045054;28;20037;-67
2022/06/06 02:28:51;;;;;;;40.63;31.00;;;;;;;13.99;95.24;101223.22;5037099;28;20071;-66
2022/06/06 02:31:17;;;;;;;36.22;29.90;;;;;;;14.04;95.04;101226.25;5027670;28;20037;-66
2022/06/06 02:33:42;;;;;;;36.60;28.85;;;;;;;14.07;95.01;101226.81;5034114;28;20048;-67
2022/06/06 02:36:08;;;;;;;35.83;28.35;;;;;;;14.03;95.11;101219.38;5045327;28;20078;-68
2022/06/06 02:38:34;;;;;;;36.13;28.15;;;;;;;14.04;95.01;101226.25;5045333;28;20098;-66
2022/06/06 02:41:08;;;;;;;35.03;28.00;;;;;;;13.95;95.44;101214.03;5044354;28;20064;-66
2022/06/06 02:43:42;;;;;;;31.98;26.02;;;;;;;13.95;95.53;101211.44;5033326;28;20065;-66
2022/06/06 02:46:10;;;;;;;33.58;26.70;;;;;;;13.99;95.57;101223.22;5027182;28;20029;-69
2022/06/06 02:48:36;;;;;;;33.53;26.03;;;;;;;14.03;95.62;101216.78;5038643;28;20059;-67
2022/06/06 02:51:03;;;;;;;30.42;24.20;;;;;;;14.01;95.49;101213.50;5039585;28;20037;-66
2022/06/06 02:53:29;;;;;;;28.42;24.15;;;;;;;14.03;95.69;101199.34;5042926;28;20485;-66
2022/06/06 02:55:56;;;;;;;26.58;22.20;;;;;;;14.02;95.54;101186.44;5045747;28;20025;-67
2022/06/06 02:58:22;;;;;;;27.70;21.77;;;;;;;14.02;95.41;101199.47;5045074;28;20040;-69
2022/06/06 03:00:48;;;;;;;28.95;22.60;;;;;;;13.94;96.15;101204.59;5042285;28;20029;-67
2022/06/06 03:03:14;;;;;;;24.13;20.92;;;;;;;13.99;96.23;101198.00;5043431;28;20032;-69
2022/06/06 03:05:58;;;;;;;25.45;21.77;;;;;;;14.08;96.02;101197.13;5040588;28;20112;-67
2022/06/06 03:08:28;;;;;;;26.63;21.75;;;;;;;14.01;96.01;101200.44;5038988;28;20036;-67
2022/06/06 03:11:20;;;;;;;26.20;21.25;;;;;;;13.92;96.16;101199.47;5044372;28;20045;-68
2022/06/06 03:13:45;;;;;;;25.75;21.20;;;;;;;13.97;95.72;101199.91;5043320;28;20037;-68
2022/06/06 03:22:30;;;;;;;24.23;20.25;;;;;;;14.03;96.23;101208.94;5040247;28;20495;-65
2022/06/06 03:25:36;;;;;;;25.33;20.45;;;;;;;14.00;97.07;101210.06;5045823;28;20047;-66
2022/06/06 03:28:23;;;;;;;25.65;20.17;;;;;;;13.97;97.25;101206.91;5044868;28;20090;-66
2022/06/06 03:30:51;;;;;;;25.90;20.83;;;;;;;13.99;97.14;101212.78;5042879;28;20035;-67
2022/06/06 03:33:38;;;;;;;30.70;23.05;;;;;;;14.03;97.03;101214.16;5027460;28;20104;-66
2022/06/06 03:36:24;;;;;;;31.40;25.55;;;;;;;14.02;96.98;101217.75;5039086;28;20495;-68
2022/06/06 03:39:05;;;;;;;37.88;28.52;;;;;;;13.96;97.26;101207.88;5040515;28;20122;-68
2022/06/06 03:42:01;;;;;;;41.97;33.40;;;;;;;14.00;96.92;101210.06;5042457;28;20025;-67
2022/06/06 03:44:51;;;;;;;50.22;39.15;;;;;;;13.97;96.87;101209.50;5044693;28;20142;-66
2022/06/06 03:47:54;;;;;;;63.05;46.92;;;;;;;13.98;96.98;101211.16;5043600;28;20087;-66
2022/06/06 03:50:30;;;;;;;61.92;47.53;;;;;;;13.89;96.19;101196.34;5024961;28;20033;-66
2022/06/06 03:53:02;;;;;;;68.93;51.22;;;;;;;13.97;96.13;101217.31;5029817;28;20045;-66
2022/06/06 03:56:12;;;;;;;68.65;50.55;;;;;;;13.94;96.31;101213.22;5033624;28;20033;-67
2022/06/06 03:58:39;;;;;;;67.35;49.80;;;;;;;13.87;95.66;101224.31;5022976;28;20025;-66
2022/06/06 04:01:09;;;;;;;64.00;49.13;;;;;;;13.90;95.45;101218.84;5030017;28;20033;-68
2022/06/06 04:03:37;;;;;;;56.75;46.83;;;;;;;13.81;95.06;101216.06;5029024;28;20037;-69
2022/06/06 04:06:04;;;;;;;57.45;46.50;;;;;;;13.87;94.43;101213.88;5028869;28;20028;-68
2022/06/06 04:08:32;;;;;;;54.25;43.08;;;;;;;13.81;94.20;101213.47;5024812;28;20025;-67
2022/06/06 04:11:19;;;;;;;50.80;42.30;;;;;;;13.82;93.68;101217.75;5029780;28;20030;-67
2022/06/06 04:14:09;;;;;;;47.88;41.10;;;;;;;13.79;93.34;101220.63;5026263;28;20124;-67
2022/06/06 04:16:41;;;;;;;48.70;41.95;;;;;;;13.75;93.07;101227.06;5025804;28;20477;-66
2022/06/06 04:19:27;;;;;;;50.72;41.50;;;;;;;13.73;93.74;101231.59;5037583;28;20114;-67
2022/06/06 04:22:14;;;;;;;50.78;42.70;;;;;;;13.69;93.47;101232.81;5028655;28;20075;-66
2022/06/06 04:25:06;;;;;;;51.45;42.15;;;;;;;13.73;93.35;101242.03;5039901;28;20032;-66
2022/06/06 04:27:38;;;;;;;52.25;43.72;;;;;;;13.60;93.26;101223.22;5023605;28;20031;-68
2022/06/06 04:30:28;;;;;;;53.05;43.42;;;;;;;13.65;93.57;101231.47;5024895;28;20033;-67
2022/06/06 04:33:12;;;;;;;55.50;43.63;;;;;;;13.63;93.31;101237.75;5032542;28;20032;-66
2022/06/06 04:36:11;;;;;;;54.75;46.78;;;;;;;13.66;93.47;101232.28;5029485;28;20033;-66
2022/06/06 04:38:47;;;;;;;55.60;46.78;;;;;;;13.57;93.33;101238.28;5038929;28;20436;-66
2022/06/06 04:41:28;;;;;;;54.83;46.60;;;;;;;13.56;93.32;101247.88;5032345;28;20108;-66
2022/06/06 04:44:07;;;;;;;55.88;46.50;;;;;;;13.59;93.03;101242.41;5032984;28;20485;-66
2022/06/06 04:46:49;;;;;;;52.80;45.97;;;;;;;13.62;93.41;101247.34;5030236;28;20029;-67
2022/06/06 04:49:14;;;;;;;53.85;46.20;;;;;;;13.63;92.96;101256.81;5034120;28;20033;-67
2022/06/06 04:51:42;;;;;;;51.13;44.47;;;;;;;13.55;92.88;101256.66;5028540;28;20068;-68
2022/06/06 04:54:13;;;;;;;45.27;38.97;;;;;;;13.54;92.49;101255.03;5033385;28;20038;-66
2022/06/06 04:56:38;;;;;;;48.83;42.67;;;;;;;13.51;92.53;101260.50;5035938;28;20029;-67
2022/06/06 04:59:07;;;;;;;49.72;42.70;;;;;;;13.53;92.79;101261.16;5032989;28;20071;-66
2022/06/06 05:01:33;;;;;;;45.63;40.67;;;;;;;13.59;92.81;101254.59;5031623;28;20068;-67
2022/06/06 05:03:59;;;;;;;45.22;40.28;;;;;;;13.59;92.38;101263.28;5030646;28;20611;-66
2022/06/06 05:06:33;;;;;;;42.80;38.15;;;;;;;13.57;92.12;101275.59;5029207;28;20108;-68
2022/06/06 05:09:15;;;;;;;40.03;35.67;;;;;;;13.52;91.84;101259.53;5029589;28;20037;-66
2022/06/06 05:11:59;;;;;;;40.60;36.08;;;;;;;13.54;90.90;101278.47;5032538;28;20526;-68
2022/06/06 05:14:30;;;;;;;36.80;32.75;;;;;;;13.53;91.03;101269.00;5030678;28;20028;-65
2022/06/06 05:17:07;;;;;;;30.75;27.50;;;;;;;13.50;89.55;101279.69;5030610;28;20035;-69
2022/06/06 05:19:48;;;;;;;28.42;25.52;;;;;;;13.48;89.62;101277.22;5034105;28;20620;-66
2022/06/06 05:22:42;;;;;;;30.10;26.90;;;;;;;13.51;89.43;101276.13;5032591;28;20079;-68
2022/06/06 05:25:29;;;;;;;30.38;27.23;;;;;;;13.45;88.82;101266.25;5029857;28;20024;-68
2022/06/06 05:28:21;;;;;;;28.55;25.65;;;;;;;13.42;89.21;101266.50;5028494;28;20026;-66
2022/06/06 05:30:58;;;;;;;28.10;25.10;;;;;;;13.47;89.09;101269.53;5031162;28;20690;-68
2022/06/06 05:33:34;;;;;;;27.40;24.70;;;;;;;13.45;88.22;101271.44;5030813;28;20038;-66
2022/06/06 05:36:11;;;;;;;28.75;25.83;;;;;;;13.40;88.59;101273.63;5028069;28;20041;-66
2022/06/06 05:39:04;;;;;;;29.30;26.30;;;;;;;13.49;88.50;101272.84;5031789;28;20025;-66
2022/06/06 05:41:59;;;;;;;28.83;25.92;;;;;;;13.48;88.83;101271.19;5033972;28;20894;-66
2022/06/06 05:44:48;;;;;;;28.58;25.70;;;;;;;13.40;88.40;101268.41;5027060;28;20037;-67
2022/06/06 05:47:26;;;;;;;29.25;25.77;;;;;;;13.37;88.35;101284.31;5034798;28;20021;-69
2022/06/06 05:50:11;;;;;;;30.75;27.65;;;;;;;13.31;88.95;101279.66;5028345;28;20033;-69
2022/06/06 05:53:07;;;;;;;29.88;26.75;;;;;;;13.42;89.55;101289.94;5031276;28;20103;-66
2022/06/06 05:55:51;;;;;;;28.00;25.20;;;;;;;13.42;88.22;101293.41;5037404;28;20029;-67
2022/06/06 05:58:44;;;;;;;26.52;23.83;;;;;;;13.39;88.01;101287.63;5033462;28;20029;-66
2022/06/06 06:01:22;;;;;;;24.90;22.30;;;;;;;13.38;87.98;101296.38;5027602;28;20600;-66
2022/06/06 06:04:23;;;;;;;24.90;22.23;;;;;;;13.44;88.51;101294.06;5031198;28;20037;-69
2022/06/06 06:07:18;;;;;;;21.73;19.55;;;;;;;13.42;86.94;101276.91;5028571;28;20045;-69
2022/06/06 06:09:55;;;;;;;22.58;20.27;;;;;;;13.34;87.37;101280.19;5026129;28;20432;-67
2022/06/06 06:12:40;;;;;;;21.25;19.23;;;;;;;13.46;87.94;101293.94;5028772;28;20374;-67
2022/06/06 06:15:36;;;;;;;20.10;18.15;;;;;;;13.58;87.40;101287.66;5039804;28;20036;-69
2022/06/06 06:18:07;;;;;;;20.60;18.60;;;;;;;13.57;86.74;101300.84;5030198;28;20112;-67
2022/06/06 06:21:10;;;;;;;20.40;18.30;;;;;;;13.70;87.46;101302.22;5033169;28;20475;-68
2022/06/06 06:23:40;;;;;;;21.35;19.33;;;;;;;13.70;86.14;101299.63;4990839;28;20152;-67
2022/06/06 06:26:06;;;;;;;23.08;20.85;;;;;;;13.73;87.52;101295.94;5001478;28;20056;-67
2022/06/06 06:28:33;;;;;;;23.98;21.58;;;;;;;13.73;87.17;101306.38;5002695;28;20517;-67
2022/06/06 06:31:05;;;;;;;25.48;22.90;;;;;;;13.80;87.72;101313.50;5001886;28;20394;-68
2022/06/06 06:33:56;;;;;;;23.35;21.00;;;;;;;13.88;86.54;101304.19;5003888;28;20120;-68
2022/06/06 06:36:52;;;;;;;21.17;19.08;;;;;;;13.95;85.90;101316.56;4997719;28;20037;-67
2022/06/06 06:39:23;;;;;;;22.55;20.38;;;;;;;13.96;85.66;101313.00;4995844;28;20060;-67
2022/06/06 06:42:00;;;;;;;20.17;18.38;;;;;;;13.94;85.02;101319.31;5002596;28;20088;-68
2022/06/06 06:44:33;;;;;;;20.65;18.65;;;;;;;13.97;84.77;101319.84;4998132;28;20034;-67
2022/06/06 06:47:29;;;;;;;21.20;19.20;;;;;;;13.99;85.06;101322.31;4988366;28;20127;-68
2022/06/06 06:49:58;;;;;;;20.90;18.90;;;;;;;14.12;83.95;101328.13;4984230;28;20189;-67
2022/06/06 06:52:29;;;;;;;20.25;18.33;;;;;;;14.11;84.03;101334.31;4991542;28;20120;-67
2022/06/06 06:55:10;;;;;;;20.00;17.98;;;;;;;14.23;84.31;101335.81;4992040;28;20052;-67
2022/06/06 06:57:51;;;;;;;19.45;17.65;;;;;;;14.21;84.47;101332.50;4989628;28;20018;-68
2022/06/06 07:00:22;;;;;;;18.20;16.48;;;;;;;14.16;83.37;101334.69;5036686;28;20055;-67
2022/06/06 07:09:32;;;;;;;12.80;11.50;;;;;;;14.35;81.71;101334.72;5033823;28;20043;-72
2022/06/06 07:12:00;;;;;;;13.02;11.63;;;;;;;14.34;80.79;101327.88;5027747;28;20017;-68
2022/06/06 07:14:31;;;;;;;12.30;10.80;;;;;;;14.34;80.70;101342.69;5025368;28;20553;-67
2022/06/06 07:16:58;;;;;;;12.68;9.85;;;;;;;14.47;80.78;101342.44;5028140;28;20247;-67
2022/06/06 07:19:35;;;;;;;13.00;9.73;;;;;;;14.57;80.68;101332.84;5026120;28;20482;-67
2022/06/06 07:22:02;;;;;;;10.40;8.05;;;;;;;14.67;79.22;101338.03;5028675;28;20033;-67
2022/06/06 07:24:28;;;;;;;8.07;7.20;;;;;;;14.69;78.36;101329.09;5030637;28;20025;-67
2022/06/06 07:26:56;;;;;;;9.95;6.63;;;;;;;14.69;76.43;101336.94;5042424;28;20100;-67
2022/06/06 07:29:22;;;;;;;9.43;6.90;;;;;;;14.79;77.16;101345.56;5043108;28;20036;-68
2022/06/06 07:32:06;;;;;;;8.02;5.57;;;;;;;14.78;75.11;101346.53;5044005;28;20071;-68
2022/06/06 07:34:57;;;;;;;9.30;5.55;;;;;;;14.84;75.86;101330.31;5039370;28;20387;-67
2022/06/06 07:37:48;;;;;;;7.70;5.45;;;;;;;14.78;74.56;101336.09;5031743;28;20048;-68
2022/06/06 07:40:42;;;;;;;7.95;4.95;;;;;;;14.89;75.55;101335.09;5022320;28;20045;-69
2022/06/06 07:43:44;;;;;;;7.95;4.55;;;;;;;14.97;74.87;101355.31;5007825;28;20045;-67
2022/06/06 07:46:40;;;;;;;6.90;4.68;;;;;;;14.97;74.72;101339.66;5030313;28;20462;-67
2022/06/06 07:49:29;;;;;;;7.15;4.30;;;;;;;15.05;73.75;101347.59;5030861;28;20029;-68
2022/06/06 07:52:08;;;;;;;7.05;4.78;;;;;;;15.02;73.95;101353.91;5027197;28;20074;-66
2022/06/06 07:54:42;;;;;;;6.13;4.78;;;;;;;15.07;73.21;101353.50;5032955;28;20029;-69
2022/06/06 07:57:21;;;;;;;8.32;4.53;;;;;;;15.19;72.74;101349.75;5044301;28;20465;-65
2022/06/06 07:59:55;;;;;;;8.45;5.05;;;;;;;15.40;73.74;101358.19;5036924;28;20064;-66
2022/06/06 08:02:43;;;;;;;7.05;5.00;;;;;;;15.49;74.65;101358.31;5037573;28;20276;-66
2022/06/06 08:05:14;;;;;;;9.83;5.10;;;;;;;15.47;72.89;101357.63;5045949;28;20032;-66
2022/06/06 08:07:53;;;;;;;7.53;4.85;;;;;;;15.41;73.04;101341.53;5029198;28;20105;-67
2022/06/06 08:10:34;;;;;;;7.95;4.80;;;;;;;15.63;72.50;101357.88;5040184;28;20032;-67
2022/06/06 08:13:16;;;;;;;9.18;4.85;;;;;;;15.85;73.54;101351.44;5048300;28;20428;-67
2022/06/06 08:16:16;;;;;;;7.63;3.50;;;;;;;15.80;72.40;101343.19;5047467;28;20027;-68
2022/06/06 08:18:53;;;;;;;5.88;3.40;;;;;;;15.62;71.04;101358.81;5048108;28;20112;-67
2022/06/06 08:21:25;;;;;;;6.55;3.00;;;;;;;15.57;71.66;101358.41;5036479;28;20035;-66
2022/06/06 08:23:58;;;;;;;6.82;3.17;;;;;;;15.53;71.52;101351.81;5048840;28;20393;-66
2022/06/06 08:26:25;;;;;;;5.95;3.40;;;;;;;15.35;71.53;101344.75;5031993;28;20025;-66
2022/06/06 08:28:51;;;;;;;7.10;3.28;;;;;;;15.30;70.02;101351.34;5042760;28;20474;-66
2022/06/06 08:31:18;;;;;;;6.50;3.20;;;;;;;15.22;69.69;101359.09;5044533;28;20047;-66
2022/06/06 08:33:44;;;;;;;4.15;2.42;;;;;;;15.21;69.97;101347.00;5039431;28;20037;-66
2022/06/06 08:36:18;;;;;;;7.97;3.00;;;;;;;15.31;71.35;101353.84;5039735;28;20088;-66
2022/06/06 08:39:09;;;;;;;8.18;3.13;;;;;;;15.41;70.93;101344.16;5034086;28;20033;-65
2022/06/06 08:41:37;;;;;;;5.05;2.78;;;;;;;15.44;71.51;101344.84;5038797;28;20033;-67
2022/06/06 08:44:27;;;;;;;6.03;2.88;;;;;;;15.60;71.78;101347.69;5041076;28;20079;-65
2022/06/06 08:47:31;;;;;;;6.35;3.50;;;;;;;15.65;72.45;101345.47;5036829;28;20572;-65
2022/06/06 08:53:08;;;;;;;4.70;2.97;;;;;;;15.74;71.42;101334.13;5037116;28;20071;-65
2022/06/06 08:55:49;;;;;;;5.57;2.92;;;;;;;15.82;70.23;101342.06;5030817;28;20373;-66
2022/06/06 08:58:43;;;;;;;6.32;2.97;;;;;;;15.90;69.80;101339.56;5045205;28;20504;-66
2022/06/06 09:01:46;;;;;;;3.58;2.60;;;;;;;15.82;68.28;101331.59;5037755;28;20098;-66
2022/06/06 09:04:17;;;;;;;5.47;2.85;;;;;;;15.60;67.87;101332.00;5043225;28;20373;-66
2022/06/06 09:06:56;;;;;;;5.93;3.10;;;;;;;15.66;69.15;101341.91;5040996;28;20027;-65
2022/06/06 09:10:00;;;;;;;5.25;3.13;;;;;;;15.69;70.16;101341.59;5046648;28;20032;-66
2022/06/06 09:12:46;;;;;;;6.05;3.38;;;;;;;15.70;70.35;101342.41;5029906;28;20100;-65
2022/06/06 09:15:30;;;;;;;5.63;3.20;;;;;;;15.81;70.39;101344.81;5028416;28;20500;-65
2022/06/06 09:18:33;;;;;;;4.80;3.45;;;;;;;15.83;70.05;101333.28;5029369;28;20022;-66
2022/06/06 09:21:01;;;;;;;5.65;3.33;;;;;;;15.88;69.70;101328.41;5028693;28;20045;-69
2022/06/06 09:23:29;;;;;;;5.50;3.20;;;;;;;15.91;68.79;101330.72;5032100;28;20115;-66
2022/06/06 09:26:09;;;;;;;4.47;3.80;;;;;;;15.89;69.73;101335.28;5031663;28;20915;-66
2022/06/06 09:29:05;;;;;;;5.60;3.83;;;;;;;15.95;69.38;101330.44;5038082;28;20381;-67
2022/06/06 09:31:52;;;;;;;5.65;3.72;;;;;;;16.04;69.89;101329.53;5036169;28;20026;-66
2022/06/06 09:34:18;;;;;;;6.38;3.55;;;;;;;16.07;69.44;101326.66;5036171;28;20025;-66
2022/06/06 09:36:43;;;;;;;4.80;3.70;;;;;;;16.19;69.71;101328.06;5028730;28;20456;-69
2022/06/06 09:39:29;;;;;;;7.82;3.88;;;;;;;16.28;69.52;101326.31;5041561;28;20038;-66
2022/06/06 09:42:37;;;;;;;6.10;3.72;;;;;;;16.36;68.69;101316.75;5044436;28;20036;-66
2022/06/06 09:45:06;;;;;;;5.47;3.60;;;;;;;16.51;68.25;101313.59;5044730;28;20021;-66
2022/06/06 09:47:58;;;;;;;5.57;3.60;;;;;;;16.69;69.31;101303.94;5035172;28;20025;-65
2022/06/06 09:50:38;;;;;;;6.20;3.42;;;;;;;16.91;64.79;101292.94;5039157;28;20025;-66
2022/06/06 09:53:41;;;;;;;4.18;2.53;;;;;;;16.95;64.58;101294.28;5043098;28;20040;-67
2022/06/06 09:59:24;;;;;;;5.18;2.67;;;;;;;17.04;62.94;101289.09;5035589;28;20114;-66
2022/06/06 10:02:20;;;;;;;5.65;3.05;;;;;;;17.10;64.85;101291.09;5045605;28;20385;-66
2022/06/06 10:04:58;;;;;;;5.63;2.72;;;;;;;17.18;64.52;101299.00;5036817;28;20040;-66
2022/06/06 10:07:26;;;;;;;5.00;2.80;;;;;;;17.05;63.91;101288.13;5043783;28;20029;-67
2022/06/06 10:09:51;;;;;;;;;;;;;;;17.23;66.18;101287.06;5037760;28;20028;-66
2022/06/06 10:12:50;;;;;;;6.13;2.83;;;;;;;17.32;63.19;101282.69;5025586;28;20285;-66
2022/06/06 10:15:22;;;;;;;5.22;3.08;;;;;;;17.34;62.03;101283.34;5031742;28;20033;-66
2022/06/06 10:18:02;;;;;;;5.18;3.30;;;;;;;17.39;62.16;101290.75;5045631;28;20112;-66
2022/06/06 10:20:43;;;;;;;5.93;3.35;;;;;;;17.23;61.89;101294.09;5033697;28;20449;-66
2022/06/06 10:23:27;;;;;;;5.93;3.67;;;;;;;17.16;62.62;101285.22;5043798;28;20354;-68
2022/06/06 10:26:30;;;;;;;5.15;3.38;;;;;;;17.02;62.53;101283.19;5036855;28;20111;-65
2022/06/06 10:28:55;;;;;;;5.47;3.38;;;;;;;16.94;62.20;101284.78;5032076;28;20025;-66
2022/06/06 10:31:43;;;;;;;4.68;3.70;;;;;;;16.99;64.02;101279.09;5041560;28;20029;-67
2022/06/06 10:34:17;;;;;;;6.13;4.40;;;;;;;16.76;64.12;101291.88;5031836;28;20379;-66
2022/06/06 10:37:07;;;;;;;7.22;4.10;;;;;;;16.74;65.51;101291.19;5037168;28;20287;-66
2022/06/06 10:39:51;;;;;;;6.65;3.75;;;;;;;16.56;65.88;101295.63;5039780;28;20259;-67
2022/06/06 10:42:32;;;;;;;7.18;4.50;;;;;;;16.36;69.30;101298.44;5036575;28;20033;-65
2022/06/06 10:45:25;;;;;;;6.25;4.65;;;;;;;16.40;69.89;101315.50;5031688;28;20056;-68
2022/06/06 10:48:12;;;;;;;8.65;4.75;;;;;;;16.11;70.45;101314.88;5046128;28;20079;-66
2022/06/06 10:54:05;;;;;;;6.50;4.40;;;;;;;15.78;72.77;101298.06;5044183;28;20075;-67
2022/06/06 10:56:52;;;;;;;6.53;4.78;;;;;;;15.95;74.24;101293.81;5044460;28;20056;-68
2022/06/06 10:59:51;;;;;;;8.15;5.80;;;;;;;16.17;75.13;101282.88;5033532;28;20120;-69
2022/06/06 11:02:35;;;;;;;8.90;6.85;;;;;;;16.44;78.05;101295.88;5036163;28;20048;-68
2022/06/06 11:05:01;;;;;;;9.52;7.50;;;;;;;16.69;77.42;101298.69;5043393;28;20127;-67
2022/06/06 11:08:00;;;;;;;8.65;7.75;;;;;;;16.99;76.45;101285.16;5041830;28;20425;-67
2022/06/06 11:10:40;;;;;;;7.35;6.10;;;;;;;17.13;75.80;101285.53;5039414;28;20051;-69
2022/06/06 11:13:11;;;;;;;8.88;5.22;;;;;;;17.37;72.96;101277.75;5034399;28;20037;-67
2022/06/06 11:16:11;;;;;;;5.03;4.20;;;;;;;17.52;72.70;101278.81;5052495;28;20028;-67
2022/06/06 11:19:04;;;;;;;5.72;4.10;;;;;;;17.68;71.85;101274.59;5013339;28;20047;-68
2022/06/06 11:21:45;;;;;;;8.10;4.10;;;;;;;17.80;70.36;101262.84;5027035;28;20158;-70
2022/06/06 11:24:47;;;;;;;6.00;3.20;;;;;;;17.92;69.94;101258.91;5029625;28;20045;-69
2022/06/06 11:27:40;;;;;;;5.75;2.60;;;;;;;18.05;68.86;101256.63;5032739;28;20024;-69
2022/06/06 11:30:24;;;;;;;4.32;2.50;;;;;;;18.15;68.90;101253.03;5032324;28;20028;-66
2022/06/06 11:33:23;;;;;;;5.47;2.67;;;;;;;18.28;69.07;101250.72;5039232;28;20025;-66
2022/06/06 11:36:26;;;;;;;3.00;2.25;;;;;;;18.42;67.55;101246.63;5024712;28;20049;-67
2022/06/06 11:39:06;;;;;;;5.97;2.30;;;;;;;18.35;64.92;101256.97;5035159;28;20028;-66
2022/06/06 11:42:22;;;;;;;4.07;2.47;;;;;;;18.27;64.70;101247.28;5049345;28;20068;-67
2022/06/06 11:45:00;;;;;;;4.35;2.33;;;;;;;17.98;64.24;101253.03;5015840;28;20041;-67
2022/06/06 11:47:37;;;;;;;4.22;2.35;;;;;;;17.88;63.61;101254.16;5039385;28;20067;-66
2022/06/06 11:50:12;;;;;;;4.80;2.40;;;;;;;17.75;62.41;101249.38;5048437;28;20028;-66
2022/06/06 11:53:14;;;;;;;3.38;2.20;;;;;;;17.75;63.65;101249.38;5050608;28;20048;-66
2022/06/06 11:56:04;;;;;;;4.07;2.10;;;;;;;17.50;63.38;101244.06;5038100;28;20051;-66
2022/06/06 11:58:48;;;;;;;5.10;2.15;;;;;;;17.34;63.41;101241.38;5043601;28;20059;-69
2022/06/06 12:01:36;;;;;;;4.95;2.22;;;;;;;17.34;63.71;101251.06;5059606;28;20059;-68
2022/06/06 12:04:33;;;;;;;3.25;2.10;;;;;;;17.16;63.11;101256.41;5048887;28;20033;-67
2022/06/06 12:07:20;;;;;;;5.30;2.10;;;;;;;16.99;62.79;101253.69;5041402;28;20036;-66
2022/06/06 12:10:14;;;;;;;5.65;2.30;;;;;;;16.94;62.62;101261.22;5050952;28;20097;-66
2022/06/06 12:12:54;;;;;;;3.53;2.33;;;;;;;16.80;62.99;101264.38;5045301;28;20033;-65
2022/06/06 12:15:42;;;;;;;4.65;2.33;;;;;;;16.76;63.77;101289.28;5044454;28;20384;-67
2022/06/06 12:18:20;;;;;;;8.00;3.80;;;;;;;16.44;69.53;101295.88;5040839;28;20381;-68
2022/06/06 12:21:06;;;;;;;8.10;3.50;;;;;;;16.21;71.39;101299.94;5045056;28;20037;-67
2022/06/06 12:23:46;;;;;;;7.40;3.53;;;;;;;15.97;73.30;101299.72;5044638;28;20122;-67
2022/06/06 12:26:49;;;;;;;6.55;3.30;;;;;;;15.93;74.44;101292.16;5041615;28;20411;-68
2022/06/06 12:29:44;;;;;;;4.68;3.58;;;;;;;15.98;75.30;101293.50;5046367;28;20040;-68
2022/06/06 12:32:33;;;;;;;5.20;3.30;;;;;;;15.95;75.25;101289.41;5030480;28;20087;-68
2022/06/06 12:35:28;;;;;;;5.88;3.58;;;;;;;15.81;76.80;101282.88;5037192;28;20043;-67